createdAt,value
2018-09-27T00:00:59.829Z,0
2018-09-27T00:02:00.418Z,0
2018-09-27T00:03:00.992Z,0
2018-09-27T00:04:01.566Z,0
2018-09-27T00:05:02.140Z,0
2018-09-27T00:06:02.715Z,0
2018-09-27T00:07:03.292Z,0
2018-09-27T00:08:03.865Z,0
2018-09-27T00:09:04.441Z,0
2018-09-27T00:10:05.017Z,0
2018-09-27T00:11:05.591Z,0
2018-09-27T00:12:06.166Z,0
2018-09-27T00:13:06.741Z,0
2018-09-27T00:14:07.315Z,0
2018-09-27T00:15:07.892Z,0
2018-09-27T00:16:08.469Z,0
2018-09-27T00:17:09.041Z,0
2018-09-27T00:18:09.618Z,0
2018-09-27T00:19:10.192Z,0
2018-09-27T00:20:10.768Z,0
2018-09-27T00:21:11.358Z,0
2018-09-27T00:22:11.932Z,0
2018-09-27T00:23:12.506Z,0
2018-09-27T00:24:13.089Z,0
2018-09-27T00:25:13.670Z,0
2018-09-27T00:26:14.245Z,0
2018-09-27T00:27:14.822Z,0
2018-09-27T00:28:15.395Z,0
2018-09-27T00:29:15.969Z,0
2018-09-27T00:30:16.543Z,0
2018-09-27T00:31:17.119Z,0
2018-09-27T00:32:17.695Z,0
2018-09-27T00:33:18.283Z,0
2018-09-27T00:34:18.858Z,0
2018-09-27T00:35:19.432Z,0
2018-09-27T00:36:20.009Z,0
2018-09-27T00:37:20.581Z,0
2018-09-27T00:38:21.170Z,0
2018-09-27T00:39:21.746Z,0
2018-09-27T00:40:22.370Z,0
2018-09-27T00:41:22.947Z,0
2018-09-27T00:42:23.533Z,0
2018-09-27T00:43:24.121Z,0
2018-09-27T00:44:24.696Z,0
2018-09-27T00:45:25.287Z,0
2018-09-27T00:46:25.859Z,0
2018-09-27T00:47:26.436Z,0
2018-09-27T00:48:27.009Z,0
2018-09-27T00:49:27.603Z,0
2018-09-27T00:50:28.174Z,0
2018-09-27T00:51:28.749Z,0
2018-09-27T00:52:29.322Z,0
2018-09-27T00:53:29.898Z,0
2018-09-27T00:54:30.474Z,0
2018-09-27T00:55:31.061Z,0
2018-09-27T00:56:31.636Z,0
2018-09-27T00:57:32.209Z,0
2018-09-27T00:58:32.785Z,0
2018-09-27T00:59:33.361Z,0
2018-09-27T01:00:33.935Z,0
2018-09-27T01:01:34.511Z,0
2018-09-27T01:02:35.083Z,0
2018-09-27T01:03:35.657Z,0
2018-09-27T01:04:36.234Z,0
2018-09-27T01:05:36.807Z,0
2018-09-27T01:06:37.382Z,0
2018-09-27T01:07:37.969Z,0
2018-09-27T01:08:38.561Z,0
2018-09-27T01:09:39.122Z,0
2018-09-27T01:10:39.694Z,0
2018-09-27T01:11:40.268Z,0
2018-09-27T01:12:40.843Z,0
2018-09-27T01:13:41.431Z,0
2018-09-27T01:14:42.006Z,0
2018-09-27T01:15:42.580Z,0
2018-09-27T01:16:43.157Z,0
2018-09-27T01:17:43.730Z,0
2018-09-27T01:18:44.304Z,0
2018-09-27T01:19:44.881Z,0
2018-09-27T01:20:45.456Z,0
2018-09-27T01:21:46.032Z,0
2018-09-27T01:22:46.605Z,0
2018-09-27T01:23:47.180Z,0
2018-09-27T01:24:47.757Z,0
2018-09-27T01:25:48.345Z,0
2018-09-27T01:26:48.919Z,0
2018-09-27T01:27:49.509Z,0
2018-09-27T01:28:50.083Z,0
2018-09-27T01:29:50.657Z,0
2018-09-27T01:30:51.234Z,0
2018-09-27T01:31:51.807Z,0
2018-09-27T01:32:52.391Z,0
2018-09-27T01:33:52.956Z,0
2018-09-27T01:34:53.530Z,0
2018-09-27T01:35:54.119Z,0
2018-09-27T01:36:54.694Z,0
2018-09-27T01:37:55.273Z,0
2018-09-27T01:38:55.845Z,0
2018-09-27T01:39:56.420Z,0
2018-09-27T01:40:56.994Z,0
2018-09-27T01:41:57.573Z,0
2018-09-27T01:42:58.149Z,0
2018-09-27T01:43:58.719Z,0
2018-09-27T01:44:59.308Z,0
2018-09-27T01:45:59.882Z,0
2018-09-27T01:47:00.463Z,0
2018-09-27T01:48:01.034Z,0
2018-09-27T01:49:01.609Z,0
2018-09-27T01:50:02.198Z,0
2018-09-27T01:51:02.772Z,0
2018-09-27T01:52:03.346Z,0
2018-09-27T01:53:03.935Z,0
2018-09-27T01:54:04.509Z,0
2018-09-27T01:55:05.083Z,0
2018-09-27T01:56:05.673Z,0
2018-09-27T01:57:06.249Z,0
2018-09-27T01:58:06.824Z,0
2018-09-27T01:59:07.397Z,0
2018-09-27T02:00:07.974Z,0
2018-09-27T02:01:08.550Z,0
2018-09-27T02:02:09.124Z,0
2018-09-27T02:03:09.696Z,0
2018-09-27T02:04:10.271Z,0
2018-09-27T02:05:10.847Z,0
2018-09-27T02:06:11.422Z,0
2018-09-27T02:07:11.996Z,0
2018-09-27T02:08:12.571Z,0
2018-09-27T02:09:13.147Z,0
2018-09-27T02:10:13.732Z,0
2018-09-27T02:11:14.313Z,0
2018-09-27T02:12:14.888Z,0
2018-09-27T02:13:15.465Z,0
2018-09-27T02:14:16.041Z,0
2018-09-27T02:15:16.615Z,0
2018-09-27T02:16:17.189Z,0
2018-09-27T02:17:17.762Z,0
2018-09-27T02:18:18.341Z,0
2018-09-27T02:19:18.928Z,0
2018-09-27T02:20:19.504Z,0
2018-09-27T02:21:20.094Z,0
2018-09-27T02:22:20.668Z,0
2018-09-27T02:23:21.242Z,0
2018-09-27T02:24:21.818Z,0
2018-09-27T02:25:22.394Z,0
2018-09-27T02:26:22.970Z,0
2018-09-27T02:27:23.544Z,0
2018-09-27T02:28:24.135Z,0
2018-09-27T02:29:24.710Z,0
2018-09-27T02:30:25.300Z,0
2018-09-27T02:31:25.876Z,0
2018-09-27T02:32:26.452Z,0
2018-09-27T02:33:27.023Z,0
2018-09-27T02:34:27.599Z,0
2018-09-27T02:35:28.174Z,0
2018-09-27T02:36:28.749Z,0
2018-09-27T02:37:29.324Z,0
2018-09-27T02:38:29.914Z,0
2018-09-27T02:39:30.489Z,0
2018-09-27T02:40:31.076Z,0
2018-09-27T02:41:31.650Z,0
2018-09-27T02:42:32.225Z,0
2018-09-27T02:43:32.801Z,0
2018-09-27T02:44:33.375Z,0
2018-09-27T02:45:33.954Z,0
2018-09-27T02:46:34.532Z,0
2018-09-27T02:47:35.115Z,0
2018-09-27T02:48:35.689Z,0
2018-09-27T02:49:36.265Z,0
2018-09-27T02:50:36.839Z,0
2018-09-27T02:51:37.414Z,0
2018-09-27T02:52:37.991Z,0
2018-09-27T02:53:38.564Z,0
2018-09-27T02:54:39.141Z,0
2018-09-27T02:55:39.713Z,0
2018-09-27T02:56:40.287Z,0
2018-09-27T02:57:40.863Z,0
2018-09-27T02:58:41.437Z,0
2018-09-27T02:59:42.012Z,0
2018-09-27T03:00:42.588Z,0
2018-09-27T03:01:43.162Z,0
2018-09-27T03:02:43.738Z,0
2018-09-27T03:03:44.322Z,0
2018-09-27T03:04:44.888Z,0
2018-09-27T03:05:45.464Z,0
2018-09-27T03:06:46.053Z,0
2018-09-27T03:07:46.636Z,0
2018-09-27T03:08:47.216Z,0
2018-09-27T03:09:47.793Z,0
2018-09-27T03:10:48.381Z,0
2018-09-27T03:11:48.955Z,0
2018-09-27T03:12:49.530Z,0
2018-09-27T03:13:50.181Z,0
2018-09-27T03:14:50.680Z,0
2018-09-27T03:15:51.255Z,0
2018-09-27T03:16:51.846Z,0
2018-09-27T03:17:52.417Z,0
2018-09-27T03:18:52.995Z,0
2018-09-27T03:19:53.569Z,0
2018-09-27T03:20:54.186Z,0
2018-09-27T03:21:54.716Z,0
2018-09-27T03:22:55.290Z,0
2018-09-27T03:23:55.866Z,0
2018-09-27T03:24:56.442Z,0
2018-09-27T03:25:57.015Z,0
2018-09-27T03:26:57.595Z,0
2018-09-27T03:27:58.163Z,0
2018-09-27T03:28:58.753Z,0
2018-09-27T03:29:59.329Z,0
2018-09-27T03:30:59.904Z,0
2018-09-27T03:32:00.484Z,0
2018-09-27T03:33:01.065Z,0
2018-09-27T03:34:01.652Z,0
2018-09-27T03:35:02.229Z,0
2018-09-27T03:36:02.803Z,0
2018-09-27T03:37:03.392Z,0
2018-09-27T03:38:03.980Z,0
2018-09-27T03:39:04.556Z,0
2018-09-27T03:40:05.204Z,0
2018-09-27T03:41:05.705Z,0
2018-09-27T03:42:06.281Z,0
2018-09-27T03:43:06.857Z,0
2018-09-27T03:44:07.430Z,0
2018-09-27T03:45:08.006Z,0
2018-09-27T03:46:08.600Z,0
2018-09-27T03:47:09.159Z,0
2018-09-27T03:48:09.729Z,0
2018-09-27T03:49:10.303Z,0
2018-09-27T03:50:10.880Z,0
2018-09-27T03:51:11.456Z,0
2018-09-27T03:52:12.030Z,0
2018-09-27T03:53:12.608Z,0
2018-09-27T03:54:13.181Z,0
2018-09-27T03:55:13.757Z,0
2018-09-27T03:56:14.347Z,0
2018-09-27T03:57:14.922Z,0
2018-09-27T03:58:15.495Z,0
2018-09-27T03:59:16.070Z,0
2018-09-27T04:00:16.644Z,0
2018-09-27T04:01:17.221Z,0
2018-09-27T04:02:17.795Z,0
2018-09-27T04:03:18.482Z,0
2018-09-27T04:04:18.943Z,0
2018-09-27T04:05:19.519Z,0
2018-09-27T04:06:20.096Z,0
2018-09-27T04:07:20.674Z,0
2018-09-27T04:08:21.259Z,0
2018-09-27T04:09:21.835Z,0
2018-09-27T04:10:22.411Z,0
2018-09-27T04:11:23.003Z,0
2018-09-27T04:12:23.576Z,0
2018-09-27T04:13:24.155Z,0
2018-09-27T04:14:24.741Z,0
2018-09-27T04:15:25.316Z,0
2018-09-27T04:16:25.889Z,0
2018-09-27T04:17:26.466Z,0
2018-09-27T04:18:27.040Z,0
2018-09-27T04:19:27.630Z,0
2018-09-27T04:20:28.206Z,0
2018-09-27T04:21:28.780Z,0
2018-09-27T04:22:29.355Z,0
2018-09-27T04:23:29.932Z,0
2018-09-27T04:24:30.505Z,0
2018-09-27T04:25:31.081Z,0
2018-09-27T04:26:31.656Z,0
2018-09-27T04:27:32.231Z,0
2018-09-27T04:28:32.807Z,0
2018-09-27T04:29:33.381Z,0
2018-09-27T04:30:33.958Z,0
2018-09-27T04:31:34.532Z,0
2018-09-27T04:32:35.107Z,0
2018-09-27T04:33:35.683Z,0
2018-09-27T04:34:36.273Z,0
2018-09-27T04:35:36.847Z,0
2018-09-27T04:36:37.438Z,0
2018-09-27T04:37:38.012Z,0
2018-09-27T04:38:38.600Z,0
2018-09-27T04:39:39.182Z,0
2018-09-27T04:40:39.750Z,0
2018-09-27T04:41:40.327Z,0
2018-09-27T04:42:40.901Z,0
2018-09-27T04:43:41.474Z,0
2018-09-27T04:44:42.051Z,0
2018-09-27T04:45:42.672Z,0
2018-09-27T04:46:43.223Z,0
2018-09-27T04:47:43.784Z,0
2018-09-27T04:48:44.360Z,0
2018-09-27T04:49:44.951Z,0
2018-09-27T04:50:45.524Z,0
2018-09-27T04:51:46.165Z,0
2018-09-27T04:52:46.673Z,0
2018-09-27T04:53:47.250Z,0
2018-09-27T04:54:47.823Z,0
2018-09-27T04:55:48.398Z,0
2018-09-27T04:56:48.971Z,0
2018-09-27T04:57:49.549Z,0
2018-09-27T04:58:50.134Z,0
2018-09-27T04:59:50.762Z,0
2018-09-27T05:00:51.280Z,0
2018-09-27T05:01:51.856Z,0
2018-09-27T05:02:52.431Z,0
2018-09-27T05:03:53.061Z,0
2018-09-27T05:04:53.581Z,0
2018-09-27T05:05:54.156Z,0
2018-09-27T05:06:54.740Z,0
2018-09-27T05:07:55.308Z,0
2018-09-27T05:08:55.884Z,0
2018-09-27T05:09:56.458Z,0
2018-09-27T05:10:57.032Z,4
2018-09-27T05:11:57.612Z,4
2018-09-27T05:12:58.184Z,0
2018-09-27T05:13:58.761Z,0
2018-09-27T05:14:59.336Z,0
2018-09-27T05:15:59.929Z,4
2018-09-27T05:17:00.486Z,4
2018-09-27T05:18:01.062Z,4
2018-09-27T05:19:01.636Z,0
2018-09-27T05:20:02.234Z,4
2018-09-27T05:21:02.811Z,4
2018-09-27T05:22:03.381Z,4
2018-09-27T05:23:03.957Z,4
2018-09-27T05:24:04.546Z,8
2018-09-27T05:25:05.126Z,4
2018-09-27T05:26:05.713Z,8
2018-09-27T05:27:06.297Z,8
2018-09-27T05:28:06.862Z,8
2018-09-27T05:29:07.442Z,8
2018-09-27T05:30:08.015Z,12
2018-09-27T05:31:08.599Z,8
2018-09-27T05:32:09.181Z,12
2018-09-27T05:33:09.757Z,12
2018-09-27T05:34:10.335Z,12
2018-09-27T05:35:10.911Z,12
2018-09-27T05:36:11.486Z,16
2018-09-27T05:37:12.062Z,16
2018-09-27T05:38:12.639Z,20
2018-09-27T05:39:13.230Z,20
2018-09-27T05:40:13.806Z,20
2018-09-27T05:41:14.382Z,20
2018-09-27T05:42:14.957Z,20
2018-09-27T05:43:15.548Z,24
2018-09-27T05:44:16.126Z,28
2018-09-27T05:45:16.701Z,24
2018-09-27T05:46:17.303Z,28
2018-09-27T05:47:17.868Z,32
2018-09-27T05:48:18.460Z,32
2018-09-27T05:49:19.035Z,36
2018-09-27T05:50:19.613Z,36
2018-09-27T05:51:20.192Z,40
2018-09-27T05:52:20.764Z,40
2018-09-27T05:53:21.353Z,48
2018-09-27T05:54:21.930Z,48
2018-09-27T05:55:22.507Z,52
2018-09-27T05:56:23.083Z,60
2018-09-27T05:57:23.699Z,68
2018-09-27T05:58:24.235Z,76
2018-09-27T05:59:24.813Z,80
2018-09-27T06:00:25.389Z,88
2018-09-27T06:01:25.965Z,92
2018-09-27T06:02:26.556Z,96
2018-09-27T06:03:27.154Z,100
2018-09-27T06:04:27.720Z,108
2018-09-27T06:05:28.297Z,108
2018-09-27T06:06:28.873Z,116
2018-09-27T06:07:29.451Z,116
2018-09-27T06:08:30.028Z,120
2018-09-27T06:09:30.626Z,124
2018-09-27T06:10:31.195Z,128
2018-09-27T06:11:31.902Z,132
2018-09-27T06:12:32.351Z,140
2018-09-27T06:13:32.926Z,144
2018-09-27T06:14:33.516Z,152
2018-09-27T06:15:34.152Z,152
2018-09-27T06:16:34.685Z,160
2018-09-27T06:17:35.262Z,164
2018-09-27T06:18:35.839Z,176
2018-09-27T06:19:36.460Z,200
2018-09-27T06:20:36.994Z,188
2018-09-27T06:21:37.628Z,176
2018-09-27T06:22:38.147Z,200
2018-09-27T06:23:38.730Z,208
2018-09-27T06:24:39.308Z,208
2018-09-27T06:25:39.897Z,212
2018-09-27T06:26:40.476Z,216
2018-09-27T06:27:41.148Z,220
2018-09-27T06:28:41.647Z,224
2018-09-27T06:29:42.221Z,228
2018-09-27T06:30:42.800Z,232
2018-09-27T06:31:43.378Z,236
2018-09-27T06:32:43.956Z,240
2018-09-27T06:33:44.648Z,240
2018-09-27T06:34:45.116Z,244
2018-09-27T06:35:45.708Z,240
2018-09-27T06:36:46.287Z,240
2018-09-27T06:37:46.865Z,240
2018-09-27T06:38:47.445Z,236
2018-09-27T06:39:48.037Z,244
2018-09-27T06:40:48.616Z,248
2018-09-27T06:41:49.209Z,252
2018-09-27T06:42:49.789Z,252
2018-09-27T06:43:50.365Z,252
2018-09-27T06:44:50.943Z,256
2018-09-27T06:45:51.521Z,260
2018-09-27T06:46:52.104Z,260
2018-09-27T06:47:52.679Z,260
2018-09-27T06:48:53.363Z,264
2018-09-27T06:49:53.844Z,268
2018-09-27T06:50:54.422Z,268
2018-09-27T06:51:55.002Z,272
2018-09-27T06:52:55.579Z,272
2018-09-27T06:53:56.157Z,280
2018-09-27T06:54:56.880Z,284
2018-09-27T06:55:57.390Z,288
2018-09-27T06:56:57.892Z,288
2018-09-27T06:57:58.474Z,288
2018-09-27T06:58:59.064Z,288
2018-09-27T06:59:59.656Z,288
2018-09-27T07:01:00.280Z,292
2018-09-27T07:02:00.812Z,292
2018-09-27T07:03:01.390Z,296
2018-09-27T07:04:01.968Z,292
2018-09-27T07:05:02.616Z,296
2018-09-27T07:06:03.124Z,296
2018-09-27T07:07:03.748Z,300
2018-09-27T07:08:04.294Z,300
2018-09-27T07:09:04.874Z,304
2018-09-27T07:10:05.464Z,304
2018-09-27T07:11:06.043Z,304
2018-09-27T07:12:06.705Z,308
2018-09-27T07:13:07.212Z,308
2018-09-27T07:14:07.787Z,304
2018-09-27T07:15:08.367Z,304
2018-09-27T07:16:08.948Z,308
2018-09-27T07:17:09.523Z,308
2018-09-27T07:18:10.102Z,312
2018-09-27T07:19:10.681Z,308
2018-09-27T07:20:11.272Z,312
2018-09-27T07:21:11.838Z,312
2018-09-27T07:22:12.415Z,312
2018-09-27T07:23:12.995Z,316
2018-09-27T07:24:13.573Z,316
2018-09-27T07:25:14.192Z,316
2018-09-27T07:26:14.730Z,320
2018-09-27T07:27:15.307Z,320
2018-09-27T07:28:15.885Z,320
2018-09-27T07:29:16.465Z,320
2018-09-27T07:30:17.044Z,324
2018-09-27T07:31:17.621Z,320
2018-09-27T07:32:18.201Z,324
2018-09-27T07:33:18.789Z,324
2018-09-27T07:34:19.372Z,324
2018-09-27T07:35:19.965Z,328
2018-09-27T07:36:20.542Z,328
2018-09-27T07:37:21.122Z,328
2018-09-27T07:38:21.699Z,328
2018-09-27T07:39:22.279Z,332
2018-09-27T07:40:22.856Z,328
2018-09-27T07:41:23.436Z,332
2018-09-27T07:42:24.029Z,332
2018-09-27T07:43:24.606Z,336
2018-09-27T07:44:25.202Z,336
2018-09-27T07:45:25.778Z,340
2018-09-27T07:46:26.356Z,336
2018-09-27T07:47:26.935Z,336
2018-09-27T07:48:27.536Z,340
2018-09-27T07:49:28.091Z,340
2018-09-27T07:50:28.739Z,340
2018-09-27T07:51:29.266Z,340
2018-09-27T07:52:29.843Z,340
2018-09-27T07:53:30.422Z,340
2018-09-27T07:54:31.117Z,344
2018-09-27T07:55:31.579Z,344
2018-09-27T07:56:32.221Z,344
2018-09-27T07:57:32.751Z,344
2018-09-27T07:58:33.329Z,348
2018-09-27T07:59:33.908Z,348
2018-09-27T08:00:34.488Z,344
2018-09-27T08:01:35.081Z,348
2018-09-27T08:02:35.762Z,348
2018-09-27T08:03:36.237Z,348
2018-09-27T08:04:36.816Z,348
2018-09-27T08:05:37.395Z,348
2018-09-27T08:06:37.974Z,348
2018-09-27T08:07:38.568Z,352
2018-09-27T08:08:39.198Z,352
2018-09-27T08:09:39.723Z,352
2018-09-27T08:10:40.301Z,356
2018-09-27T08:11:40.970Z,352
2018-09-27T08:12:41.466Z,352
2018-09-27T08:13:42.051Z,352
2018-09-27T08:14:42.708Z,356
2018-09-27T08:15:43.210Z,356
2018-09-27T08:16:43.846Z,360
2018-09-27T08:17:44.366Z,356
2018-09-27T08:18:44.945Z,356
2018-09-27T08:19:45.523Z,360
2018-09-27T08:20:46.334Z,360
2018-09-27T08:21:46.689Z,356
2018-09-27T08:22:47.272Z,360
2018-09-27T08:23:47.863Z,360
2018-09-27T08:24:48.439Z,360
2018-09-27T08:25:49.019Z,360
2018-09-27T08:26:49.600Z,364
2018-09-27T08:27:50.177Z,364
2018-09-27T08:28:50.757Z,364
2018-09-27T08:29:51.336Z,360
2018-09-27T08:30:51.975Z,364
2018-09-27T08:31:52.495Z,364
2018-09-27T08:32:53.075Z,364
2018-09-27T08:33:53.654Z,368
2018-09-27T08:34:54.248Z,368
2018-09-27T08:35:54.826Z,368
2018-09-27T08:36:55.446Z,368
2018-09-27T08:37:56.000Z,368
2018-09-27T08:38:56.581Z,368
2018-09-27T08:39:57.159Z,368
2018-09-27T08:40:57.739Z,368
2018-09-27T08:41:58.320Z,368
2018-09-27T08:42:58.899Z,368
2018-09-27T08:43:59.479Z,372
2018-09-27T08:45:00.182Z,372
2018-09-27T08:46:00.641Z,368
2018-09-27T08:47:01.233Z,372
2018-09-27T08:48:01.821Z,372
2018-09-27T08:49:02.391Z,372
2018-09-27T08:50:02.972Z,372
2018-09-27T08:51:03.551Z,372
2018-09-27T08:52:04.131Z,372
2018-09-27T08:53:04.711Z,372
2018-09-27T08:54:05.290Z,376
2018-09-27T08:55:05.870Z,376
2018-09-27T08:56:06.496Z,372
2018-09-27T08:57:07.030Z,376
2018-09-27T08:58:07.611Z,376
2018-09-27T08:59:08.191Z,376
2018-09-27T09:00:08.772Z,376
2018-09-27T09:01:09.351Z,380
2018-09-27T09:02:09.931Z,376
2018-09-27T09:03:10.512Z,376
2018-09-27T09:04:11.094Z,376
2018-09-27T09:05:11.670Z,380
2018-09-27T09:06:12.254Z,380
2018-09-27T09:07:12.833Z,380
2018-09-27T09:08:13.428Z,376
2018-09-27T09:09:14.011Z,380
2018-09-27T09:10:14.589Z,384
2018-09-27T09:11:15.168Z,380
2018-09-27T09:12:15.777Z,384
2018-09-27T09:13:16.337Z,384
2018-09-27T09:14:16.919Z,380
2018-09-27T09:15:17.498Z,380
2018-09-27T09:16:18.078Z,384
2018-09-27T09:17:18.674Z,384
2018-09-27T09:18:19.255Z,384
2018-09-27T09:19:19.847Z,384
2018-09-27T09:20:20.434Z,384
2018-09-27T09:21:21.023Z,384
2018-09-27T09:22:21.604Z,384
2018-09-27T09:23:22.198Z,388
2018-09-27T09:24:22.782Z,384
2018-09-27T09:25:23.360Z,384
2018-09-27T09:26:23.940Z,384
2018-09-27T09:27:24.549Z,388
2018-09-27T09:28:25.136Z,384
2018-09-27T09:29:25.814Z,384
2018-09-27T09:30:26.306Z,388
2018-09-27T09:31:26.886Z,384
2018-09-27T09:32:27.481Z,388
2018-09-27T09:33:28.112Z,388
2018-09-27T09:34:28.655Z,388
2018-09-27T09:35:29.318Z,388
2018-09-27T09:36:29.866Z,388
2018-09-27T09:37:30.447Z,388
2018-09-27T09:38:31.028Z,388
2018-09-27T09:39:31.608Z,388
2018-09-27T09:40:32.188Z,388
2018-09-27T09:41:32.770Z,388
2018-09-27T09:42:33.350Z,388
2018-09-27T09:43:33.929Z,392
2018-09-27T09:44:34.511Z,388
2018-09-27T09:45:35.091Z,388
2018-09-27T09:46:35.672Z,388
2018-09-27T09:47:36.253Z,388
2018-09-27T09:48:36.834Z,384
2018-09-27T09:49:37.414Z,388
2018-09-27T09:50:38.000Z,388
2018-09-27T09:51:38.578Z,380
2018-09-27T09:52:39.159Z,380
2018-09-27T09:53:39.737Z,376
2018-09-27T09:54:40.323Z,380
2018-09-27T09:55:40.900Z,380
2018-09-27T09:56:41.480Z,380
2018-09-27T09:57:42.067Z,380
2018-09-27T09:58:42.658Z,380
2018-09-27T09:59:43.237Z,380
2018-09-27T10:00:43.818Z,380
2018-09-27T10:01:44.400Z,380
2018-09-27T10:02:44.980Z,380
2018-09-27T10:03:45.565Z,380
2018-09-27T10:04:46.156Z,384
2018-09-27T10:05:46.737Z,384
2018-09-27T10:06:47.331Z,384
2018-09-27T10:07:47.914Z,380
2018-09-27T10:08:48.542Z,384
2018-09-27T10:09:49.075Z,380
2018-09-27T10:10:49.656Z,380
2018-09-27T10:11:50.237Z,384
2018-09-27T10:12:50.819Z,384
2018-09-27T10:13:51.400Z,380
2018-09-27T10:14:51.981Z,388
2018-09-27T10:15:52.563Z,384
2018-09-27T10:16:53.145Z,384
2018-09-27T10:17:53.725Z,384
2018-09-27T10:18:54.307Z,384
2018-09-27T10:19:54.890Z,384
2018-09-27T10:20:55.483Z,384
2018-09-27T10:21:56.095Z,384
2018-09-27T10:22:56.649Z,388
2018-09-27T10:23:57.226Z,384
2018-09-27T10:24:57.809Z,388
2018-09-27T10:25:58.390Z,388
2018-09-27T10:26:58.971Z,384
2018-09-27T10:27:59.554Z,384
2018-09-27T10:29:00.135Z,388
2018-09-27T10:30:00.730Z,388
2018-09-27T10:31:01.361Z,392
2018-09-27T10:32:01.894Z,388
2018-09-27T10:33:02.498Z,388
2018-09-27T10:34:03.113Z,388
2018-09-27T10:35:03.652Z,388
2018-09-27T10:36:04.246Z,392
2018-09-27T10:37:04.825Z,392
2018-09-27T10:38:05.421Z,392
2018-09-27T10:39:06.005Z,388
2018-09-27T10:40:06.581Z,392
2018-09-27T10:41:07.165Z,392
2018-09-27T10:42:07.756Z,392
2018-09-27T10:43:08.339Z,392
2018-09-27T10:44:08.920Z,392
2018-09-27T10:45:09.502Z,392
2018-09-27T10:46:10.084Z,392
2018-09-27T10:47:10.682Z,392
2018-09-27T10:48:11.276Z,392
2018-09-27T10:49:11.856Z,392
2018-09-27T10:50:12.439Z,392
2018-09-27T10:51:13.041Z,392
2018-09-27T10:52:13.615Z,392
2018-09-27T10:53:14.197Z,396
2018-09-27T10:54:14.778Z,392
2018-09-27T10:55:15.361Z,392
2018-09-27T10:56:15.954Z,396
2018-09-27T10:57:16.643Z,396
2018-09-27T10:58:17.118Z,396
2018-09-27T10:59:17.698Z,396
2018-09-27T11:00:18.282Z,396
2018-09-27T11:01:18.865Z,392
2018-09-27T11:02:19.446Z,396
2018-09-27T11:03:20.040Z,396
2018-09-27T11:04:20.623Z,396
2018-09-27T11:05:21.204Z,400
2018-09-27T11:06:21.786Z,400
2018-09-27T11:07:22.368Z,400
2018-09-27T11:08:22.949Z,396
2018-09-27T11:09:23.532Z,396
2018-09-27T11:10:24.127Z,396
2018-09-27T11:11:24.778Z,400
2018-09-27T11:12:25.292Z,400
2018-09-27T11:13:25.872Z,400
2018-09-27T11:14:26.469Z,400
2018-09-27T11:15:27.051Z,400
2018-09-27T11:16:27.757Z,400
2018-09-27T11:17:28.230Z,400
2018-09-27T11:18:28.826Z,400
2018-09-27T11:19:29.407Z,400
2018-09-27T11:20:29.989Z,400
2018-09-27T11:21:30.571Z,400
2018-09-27T11:22:31.191Z,400
2018-09-27T11:23:31.736Z,400
2018-09-27T11:24:32.316Z,404
2018-09-27T11:25:32.900Z,400
2018-09-27T11:26:33.482Z,404
2018-09-27T11:27:34.127Z,404
2018-09-27T11:28:34.650Z,404
2018-09-27T11:29:35.227Z,400
2018-09-27T11:30:35.808Z,404
2018-09-27T11:31:36.392Z,400
2018-09-27T11:32:36.972Z,404
2018-09-27T11:33:37.556Z,408
2018-09-27T11:34:38.139Z,404
2018-09-27T11:35:38.720Z,408
2018-09-27T11:36:39.302Z,404
2018-09-27T11:37:39.885Z,404
2018-09-27T11:38:40.511Z,408
2018-09-27T11:39:41.049Z,408
2018-09-27T11:40:41.635Z,408
2018-09-27T11:41:42.217Z,408
2018-09-27T11:42:42.801Z,404
2018-09-27T11:43:43.378Z,408
2018-09-27T11:44:43.964Z,408
2018-09-27T11:45:44.557Z,408
2018-09-27T11:46:45.141Z,408
2018-09-27T11:47:45.721Z,408
2018-09-27T11:48:46.341Z,408
2018-09-27T11:49:46.979Z,412
2018-09-27T11:50:47.476Z,412
2018-09-27T11:51:48.059Z,408
2018-09-27T11:52:48.644Z,412
2018-09-27T11:53:49.225Z,412
2018-09-27T11:54:49.860Z,408
2018-09-27T11:55:50.405Z,412
2018-09-27T11:56:50.975Z,412
2018-09-27T11:57:51.568Z,412
2018-09-27T11:58:52.206Z,416
2018-09-27T11:59:52.732Z,416
2018-09-27T12:00:53.316Z,412
2018-09-27T12:01:53.912Z,412
2018-09-27T12:02:54.493Z,412
2018-09-27T12:03:55.076Z,408
2018-09-27T12:04:55.676Z,408
2018-09-27T12:05:56.310Z,408
2018-09-27T12:06:56.993Z,412
2018-09-27T12:07:57.575Z,412
2018-09-27T12:08:58.168Z,408
2018-09-27T12:09:58.750Z,408
2018-09-27T12:10:59.332Z,408
2018-09-27T12:11:59.974Z,408
2018-09-27T12:13:00.496Z,412
2018-09-27T12:14:01.094Z,412
2018-09-27T12:15:01.680Z,412
2018-09-27T12:16:02.273Z,412
2018-09-27T12:17:02.870Z,408
2018-09-27T12:18:03.452Z,416
2018-09-27T12:19:04.035Z,412
2018-09-27T12:20:04.690Z,416
2018-09-27T12:21:05.199Z,416
2018-09-27T12:22:05.796Z,416
2018-09-27T12:23:06.453Z,404
2018-09-27T12:24:06.961Z,408
2018-09-27T12:25:07.544Z,408
2018-09-27T12:26:08.126Z,408
2018-09-27T12:27:08.710Z,408
2018-09-27T12:28:09.291Z,420
2018-09-27T12:29:09.889Z,420
2018-09-27T12:30:10.470Z,424
2018-09-27T12:31:11.054Z,424
2018-09-27T12:32:11.636Z,424
2018-09-27T12:33:12.218Z,424
2018-09-27T12:34:12.905Z,428
2018-09-27T12:35:13.383Z,428
2018-09-27T12:36:13.965Z,424
2018-09-27T12:37:14.549Z,432
2018-09-27T12:38:15.157Z,432
2018-09-27T12:39:15.727Z,436
2018-09-27T12:40:16.309Z,432
2018-09-27T12:41:16.891Z,436
2018-09-27T12:42:17.601Z,436
2018-09-27T12:43:18.063Z,432
2018-09-27T12:44:18.645Z,436
2018-09-27T12:45:19.260Z,436
2018-09-27T12:46:19.854Z,440
2018-09-27T12:47:20.393Z,440
2018-09-27T12:48:20.997Z,444
2018-09-27T12:49:21.571Z,444
2018-09-27T12:50:22.155Z,452
2018-09-27T12:51:22.805Z,452
2018-09-27T12:52:23.505Z,456
2018-09-27T12:53:23.901Z,456
2018-09-27T12:54:24.484Z,456
2018-09-27T12:55:25.069Z,456
2018-09-27T12:56:25.665Z,456
2018-09-27T12:57:26.253Z,460
2018-09-27T12:58:26.896Z,460
2018-09-27T12:59:27.428Z,464
2018-09-27T13:00:28.007Z,460
2018-09-27T13:01:28.645Z,468
2018-09-27T13:02:29.304Z,468
2018-09-27T13:03:29.757Z,468
2018-09-27T13:04:30.340Z,472
2018-09-27T13:05:30.923Z,472
2018-09-27T13:06:31.508Z,476
2018-09-27T13:07:32.090Z,476
2018-09-27T13:08:32.745Z,476
2018-09-27T13:09:33.297Z,476
2018-09-27T13:10:33.838Z,480
2018-09-27T13:11:34.426Z,484
2018-09-27T13:12:35.102Z,484
2018-09-27T13:13:35.755Z,488
2018-09-27T13:14:36.200Z,488
2018-09-27T13:15:36.753Z,488
2018-09-27T13:16:37.338Z,488
2018-09-27T13:17:38.103Z,492
2018-09-27T13:18:38.526Z,492
2018-09-27T13:19:39.237Z,492
2018-09-27T13:20:39.725Z,496
2018-09-27T13:21:40.355Z,496
2018-09-27T13:22:40.866Z,496
2018-09-27T13:23:41.450Z,496
2018-09-27T13:24:42.034Z,500
2018-09-27T13:25:42.654Z,504
2018-09-27T13:26:43.317Z,504
2018-09-27T13:27:43.793Z,508
2018-09-27T13:28:44.402Z,512
2018-09-27T13:29:44.956Z,516
2018-09-27T13:30:45.553Z,516
2018-09-27T13:31:46.136Z,516
2018-09-27T13:32:46.719Z,520
2018-09-27T13:33:47.303Z,524
2018-09-27T13:34:47.900Z,524
2018-09-27T13:35:48.485Z,524
2018-09-27T13:36:49.117Z,528
2018-09-27T13:37:49.662Z,532
2018-09-27T13:38:50.278Z,532
2018-09-27T13:39:50.862Z,536
2018-09-27T13:40:51.426Z,532
2018-09-27T13:41:52.009Z,536
2018-09-27T13:42:52.641Z,540
2018-09-27T13:43:53.176Z,540
2018-09-27T13:44:53.777Z,540
2018-09-27T13:45:54.355Z,548
2018-09-27T13:46:54.938Z,548
2018-09-27T13:47:55.521Z,548
2018-09-27T13:48:56.132Z,548
2018-09-27T13:49:56.687Z,552
2018-09-27T13:50:57.296Z,552
2018-09-27T13:51:57.853Z,556
2018-09-27T13:52:58.435Z,556
2018-09-27T13:53:59.023Z,560
2018-09-27T13:54:59.693Z,560
2018-09-27T13:56:00.199Z,564
2018-09-27T13:57:00.851Z,564
2018-09-27T13:58:01.366Z,568
2018-09-27T13:59:01.948Z,564
2018-09-27T14:00:02.531Z,568
2018-09-27T14:01:03.157Z,568
2018-09-27T14:02:03.695Z,568
2018-09-27T14:03:04.332Z,572
2018-09-27T14:04:04.877Z,576
2018-09-27T14:05:05.460Z,576
2018-09-27T14:06:06.061Z,576
2018-09-27T14:07:06.639Z,576
2018-09-27T14:08:07.221Z,580
2018-09-27T14:09:07.804Z,584
2018-09-27T14:10:08.388Z,584
2018-09-27T14:11:08.971Z,584
2018-09-27T14:12:09.554Z,588
2018-09-27T14:13:10.137Z,588
2018-09-27T14:14:10.719Z,592
2018-09-27T14:15:11.302Z,596
2018-09-27T14:16:11.884Z,592
2018-09-27T14:17:12.469Z,596
2018-09-27T14:18:13.054Z,600